Bueyeros, New Mexico
Current Conditions -  °F | °C
As of 6:55 AM on Saturday 22 Nov 2014 (Local Time) from KCAO Reporting Station
Clear Clear  
Wind Chill: 29°   Ceiling: Unl
Heat Index: 37°   Visibility: 10mi
Dew Point: 19°   Wind: 12mph
Humidity: 48%   Direction: 260°W
Pressure: 29.92"   Gusts: NA
Location:  36.2639°N, 103.376°W
Report Text: KCAO 221355Z AUTO 26010KT 10SM CLR 03/M07 A2992 RMK AO2 SLP125 T00281072
Loading
Personal Weather Stations






























Interactive Weather Map New forecast layout! Learn more

10-Day Weather Forecast

Advertisements
Track Severe Weather on mobile